Time;durP1;ratioP1;P1;durP2;ratioP2;P2;SDS_P1;SDS_P2;PMS_P1;PMS_P2;Temp;Humidity;BMP_temperature;BMP_pressure;BME280_temperature;BME280_humidity;BME280_pressure;Samples;Min_cycle;Max_cycle;Signal;HPM_P1;HPM_P2
2023/06/04 00:00:08;;;;;;;;;;;;;;;22.07;41.38;101717.09;5006759;28;4152;-65
2023/06/04 00:02:35;;;;;;;;;;;;;;;22.07;41.68;101712.06;5004400;28;4104;-66
2023/06/04 00:05:01;;;;;;;;;;;;;;;22.06;41.47;101712.72;5002128;28;4050;-65
2023/06/04 00:07:28;;;;;;;;;;;;;;;22.05;41.69;101709.09;5010225;28;4375;-65
2023/06/04 00:09:54;;;;;;;;;;;;;;;22.05;41.52;101702.56;5005925;28;4130;-65
2023/06/04 00:12:21;;;;;;;;;;;;;;;22.04;41.68;101701.81;5004998;28;4207;-66
2023/06/04 00:14:47;;;;;;;;;;;;;;;22.03;41.69;101694.56;5006292;28;4137;-65
2023/06/04 00:17:13;;;;;;;;;;;;;;;22.04;41.46;101706.84;5006471;28;4204;-65
2023/06/04 00:19:40;;;;;;;;;;;;;;;22.05;41.85;101703.31;5007539;28;4054;-65
2023/06/04 00:22:07;;;;;;;;;;;;;;;22.03;41.73;101699.56;5008549;28;4795;-65
2023/06/04 00:24:34;;;;;;;;;;;;;;;22.02;41.69;101690.19;5007052;28;4164;-65
2023/06/04 00:27:00;;;;;;;;;;;;;;;22.01;41.58;101697.31;5011234;28;3974;-65
2023/06/04 00:29:26;;;;;;;;;;;;;;;22.01;41.59;101697.31;5000654;28;4116;-65
2023/06/04 00:31:53;;;;;;;;;;;;;;;22.00;41.65;101695.84;5002699;28;4556;-65
2023/06/04 00:34:19;;;;;;;;;;;;;;;22.00;41.60;101684.31;4998423;28;4205;-65
2023/06/04 00:36:46;;;;;;;;;;;;;;;22.00;41.57;101686.44;5008846;28;4261;-65
2023/06/04 00:39:13;;;;;;;;;;;;;;;21.99;41.60;101682.06;5010425;28;4278;-65
2023/06/04 00:41:39;;;;;;;;;;;;;;;21.99;41.72;101685.72;5025133;28;4270;-65
2023/06/04 00:44:06;;;;;;;;;;;;;;;21.98;41.58;101684.19;5004396;28;4358;-65
2023/06/04 00:46:33;;;;;;;;;;;;;;;21.98;41.73;101687.06;5005228;28;4058;-65
2023/06/04 00:48:59;;;;;;;;;;;;;;;21.98;41.37;101687.06;5003885;28;4009;-65
2023/06/04 00:51:26;;;;;;;;;;;;;;;21.96;41.51;101678.31;5008865;28;4123;-66
2023/06/04 00:53:52;;;;;;;;;;;;;;;21.97;41.50;101685.59;5006240;28;4267;-65
2023/06/04 00:56:19;;;;;;;;;;;;;;;21.96;41.66;101689.84;5015436;28;4287;-65
2023/06/04 00:58:46;;;;;;;;;;;;;;;21.96;41.57;101692.75;5004914;28;4139;-65
2023/06/04 01:01:15;;;;;;;;;;;;;;;21.96;41.67;101701.38;5006716;28;4186;-65
2023/06/04 01:03:42;;;;;;;;;;;;;;;21.95;41.45;101683.34;5000076;28;4107;-65
2023/06/04 01:06:13;;;;;;;;;;;;;;;21.95;41.56;101689.09;5002084;28;4120;-66
2023/06/04 01:08:42;;;;;;;;;;;;;;;21.95;41.37;101689.09;4998055;28;4121;-65
2023/06/04 01:11:09;;;;;;;;;;;;;;;21.94;41.50;101692.63;5013059;28;5102;-65
2023/06/04 01:13:35;;;;;;;;;;;;;;;21.94;41.45;101693.41;5004153;28;4171;-65
2023/06/04 01:16:03;;;;;;;;;;;;;;;21.94;41.48;101686.84;5006735;28;4232;-65
2023/06/04 01:18:30;;;;;;;;;;;;;;;21.93;41.55;101680.34;5002025;28;4127;-65
2023/06/04 01:21:00;;;;;;;;;;;;;;;21.93;41.60;101689.00;5009394;28;4367;-65
2023/06/04 01:23:35;;;;;;;;;;;;;;;21.93;41.68;101685.38;5005587;28;4526;-65
2023/06/04 01:26:05;;;;;;;;;;;;;;;21.92;41.65;101683.88;5001757;28;4134;-65
2023/06/04 01:28:32;;;;;;;;;;;;;;;21.93;41.56;101679.59;5010578;28;4058;-65
2023/06/04 01:30:59;;;;;;;;;;;;;;;21.92;41.32;101683.88;5001552;28;4035;-66
2023/06/04 01:33:26;;;;;;;;;;;;;;;21.92;41.41;101686.75;5002933;28;4065;-65
2023/06/04 01:35:52;;;;;;;;;;;;;;;21.91;41.58;101686.00;5003597;28;4492;-65
2023/06/04 01:38:19;;;;;;;;;;;;;;;21.90;41.42;101681.63;5003234;28;4341;-65
2023/06/04 01:40:46;;;;;;;;;;;;;;;21.88;41.34;101672.13;5004606;28;4228;-64
2023/06/04 01:43:12;;;;;;;;;;;;;;;21.90;41.43;101675.13;5005605;28;4232;-65
2023/06/04 01:45:38;;;;;;;;;;;;;;;21.89;41.44;101674.38;5008087;28;4155;-72
2023/06/04 01:48:05;;;;;;;;;;;;;;;21.89;41.63;101679.38;5008869;28;4103;-62
2023/06/04 01:50:31;;;;;;;;;;;;;;;21.88;41.32;101678.66;5007471;28;4067;-61
2023/06/04 01:52:58;;;;;;;;;;;;;;;21.88;41.47;101672.13;5006221;28;4091;-62
2023/06/04 01:55:25;;;;;;;;;;;;;;;21.87;41.35;101679.28;5011577;28;3911;-62
2023/06/04 01:57:51;;;;;;;;;;;;;;;21.87;41.37;101680.03;5008178;28;6271;-62
2023/06/04 02:00:18;;;;;;;;;;;;;;;21.85;41.27;101667.63;5015603;28;4086;-61
2023/06/04 02:02:45;;;;;;;;;;;;;;;21.85;41.48;101667.63;5003134;28;3980;-62
2023/06/04 02:05:13;;;;;;;;;;;;;;;21.86;41.46;101663.38;5008372;28;4054;-62
2023/06/04 02:07:44;;;;;;;;;;;;;;;21.84;41.61;101660.38;5018341;28;4050;-62
2023/06/04 02:10:14;;;;;;;;;;;;;;;21.83;41.44;101664.63;5006832;28;4122;-62
2023/06/04 02:12:41;;;;;;;;;;;;;;;21.82;41.53;101668.91;5009369;28;3923;-62
2023/06/04 02:15:09;;;;;;;;;;;;;;;21.83;41.54;101664.63;5011075;28;4173;-62
2023/06/04 02:17:39;;;;;;;;;;;;;;;21.82;41.50;101675.44;5015926;28;3932;-61
2023/06/04 02:20:09;;;;;;;;;;;;;;;21.81;41.23;101667.44;5013402;28;4174;-62
2023/06/04 02:22:36;;;;;;;;;;;;;;;21.82;41.41;101668.91;5010410;28;4301;-62
2023/06/04 02:25:02;;;;;;;;;;;;;;;21.80;41.50;101665.94;5011678;28;4218;-62
2023/06/04 02:27:29;;;;;;;;;;;;;;;21.81;41.42;101667.44;5012782;28;4061;-62
2023/06/04 02:29:55;;;;;;;;;;;;;;;21.80;41.49;101654.41;5008140;28;4334;-62
2023/06/04 02:32:22;;;;;;;;;;;;;;;21.81;41.61;101655.91;5007406;28;4635;-62
2023/06/04 02:34:48;;;;;;;;;;;;;;;21.80;41.22;101660.16;5006557;28;3996;-62
2023/06/04 02:37:15;;;;;;;;;;;;;;;21.78;41.26;101657.91;5004567;28;4275;-62
2023/06/04 02:39:41;;;;;;;;;;;;;;;21.79;41.42;101664.44;5016771;28;4243;-62
2023/06/04 02:42:08;;;;;;;;;;;;;;;21.79;41.60;101664.44;5012742;28;4092;-62
2023/06/04 02:44:35;;;;;;;;;;;;;;;21.77;41.33;101652.81;5011913;28;4105;-62
2023/06/04 02:47:02;;;;;;;;;;;;;;;21.78;41.33;101662.94;5005286;28;4441;-62
2023/06/04 02:49:28;;;;;;;;;;;;;;;21.77;41.25;101670.09;5006925;28;4065;-61
2023/06/04 02:51:55;;;;;;;;;;;;;;;21.77;41.31;101673.72;5013289;28;4226;-62
2023/06/04 02:54:21;;;;;;;;;;;;;;;21.77;41.46;101672.97;5010346;28;4174;-62
2023/06/04 02:56:49;;;;;;;;;;;;;;;21.76;41.35;101672.22;5003624;28;4631;-62
2023/06/04 02:59:15;;;;;;;;;;;;;;;21.75;41.53;101674.34;5003184;28;4190;-62
2023/06/04 03:01:41;;;;;;;;;;;;;;;21.75;41.32;101671.47;5008551;28;4090;-62
2023/06/04 03:04:09;;;;;;;;;;;;;;;21.74;41.24;101670.00;5011207;28;4337;-62
2023/06/04 03:06:38;;;;;;;;;;;;;;;21.73;41.60;101677.13;5010067;28;3999;-62
2023/06/04 03:09:04;;;;;;;;;;;;;;;21.73;41.49;101673.50;5001505;28;4038;-62
2023/06/04 03:11:30;;;;;;;;;;;;;;;21.72;41.41;101672.75;5008748;28;4106;-62
2023/06/04 03:13:57;;;;;;;;;;;;;;;21.71;41.33;101668.38;5015370;28;3943;-62
2023/06/04 03:16:23;;;;;;;;;;;;;;;21.71;41.38;101671.25;5005921;28;4081;-61
2023/06/04 03:18:50;;;;;;;;;;;;;;;21.71;41.33;101664.75;5011845;28;4444;-62
2023/06/04 03:21:16;;;;;;;;;;;;;;;21.71;41.31;101673.38;5004816;28;4190;-62
2023/06/04 03:23:43;;;;;;;;;;;;;;;21.70;41.31;101669.75;5003762;28;4175;-62
2023/06/04 03:26:12;;;;;;;;;;;;;;;21.69;41.29;101667.50;5006487;28;5527;-62
2023/06/04 03:28:39;;;;;;;;;;;;;;;21.69;41.21;101668.28;5006707;28;4128;-62
2023/06/04 03:31:06;;;;;;;;;;;;;;;21.70;41.54;101669.03;5009003;28;4178;-62
2023/06/04 03:33:33;;;;;;;;;;;;;;;21.67;41.47;101671.06;5002083;28;4123;-62
2023/06/04 03:36:00;;;;;;;;;;;;;;;21.70;41.48;101675.53;5002146;28;4162;-62
2023/06/04 03:38:27;;;;;;;;;;;;;;;21.70;41.25;101674.78;5008468;28;4172;-61
2023/06/04 03:40:54;;;;;;;;;;;;;;;21.69;41.54;101676.94;5007057;28;4057;-62
2023/06/04 03:43:20;;;;;;;;;;;;;;;21.68;41.47;101678.28;5009777;28;4134;-62
2023/06/04 03:45:50;;;;;;;;;;;;;;;21.68;41.46;101678.28;5010606;28;4480;-61
2023/06/04 03:48:16;;;;;;;;;;;;;;;21.67;41.53;101673.94;5007542;28;4717;-61
2023/06/04 03:50:45;;;;;;;;;;;;;;;21.66;41.48;101669.53;4967580;28;978969;-62
2023/06/04 03:53:13;;;;;;;;;;;;;;;21.66;41.54;101675.31;5006534;28;4168;-62
2023/06/04 03:55:40;;;;;;;;;;;;;;;21.69;41.87;101679.81;5014824;28;5093;-61
2023/06/04 03:58:09;;;;;;;;;;;;;;;21.72;41.53;101672.75;5002522;28;4034;-61
2023/06/04 04:00:37;;;;;;;;;;;;;;;20.22;37.89;101665.69;5002773;28;4168;-61
2023/06/04 04:03:07;;;;;;;;;;;;;;;19.85;37.99;101675.72;5003486;28;4223;-61
2023/06/04 04:05:35;;;;;;;;;;;;;;;20.47;37.70;101683.00;5002263;28;4352;-61
2023/06/04 04:08:02;;;;;;;;;;;;;;;20.93;37.52;101671.97;5000687;28;4178;-61
2023/06/04 04:10:31;;;;;;;;;;;;;;;21.19;37.49;101675.59;5012847;28;4075;-61
2023/06/04 04:12:58;;;;;;;;;;;;;;;21.29;37.62;101681.91;5009188;28;4904;-61
2023/06/04 04:15:26;;;;;;;;;;;;;;;21.37;37.91;101683.75;5013910;28;4375;-61
2023/06/04 04:17:54;;;;;;;;;;;;;;;21.40;38.23;101682.50;5004724;28;4176;-61
2023/06/04 04:20:21;;;;;;;;;;;;;;;21.41;38.53;101689.78;5002174;28;4138;-61
2023/06/04 04:22:53;;;;;;;;;;;;;;;21.43;38.30;101690.63;5013568;28;4117;-61
2023/06/04 04:25:20;;;;;;;;;;;;;;;21.45;38.66;101690.00;5002876;28;4117;-61
2023/06/04 04:27:48;;;;;;;;;;;;;;;21.45;38.70;101692.88;5006882;28;4207;-61
2023/06/04 04:30:16;;;;;;;;;;;;;;;21.46;38.82;101691.50;5011508;28;4201;-61
2023/06/04 04:32:48;;;;;;;;;;;;;;;21.46;38.96;101691.50;5010039;28;4535;-62
2023/06/04 04:35:20;;;;;;;;;;;;;;;21.46;39.63;101688.59;5008418;28;3947;-61
2023/06/04 04:37:47;;;;;;;;;;;;;;;21.46;39.41;101686.50;5005844;28;4200;-62
2023/06/04 04:40:16;;;;;;;;;;;;;;;21.47;39.61;101687.25;5009736;28;4006;-61
2023/06/04 04:42:46;;;;;;;;;;;;;;;21.48;40.01;101688.72;5007133;28;4134;-61
2023/06/04 04:45:14;;;;;;;;;;;;;;;21.47;40.13;101687.25;5002413;28;4056;-61
2023/06/04 04:47:41;;;;;;;;;;;;;;;21.47;40.15;101687.25;5004761;28;4499;-61
2023/06/04 04:50:08;;;;;;;;;;;;;;;21.47;40.28;101690.13;5010306;28;4209;-61
2023/06/04 04:52:34;;;;;;;;;;;;;;;21.47;40.06;101690.13;5002381;28;4037;-61
2023/06/04 04:55:01;;;;;;;;;;;;;;;21.48;40.32;101694.47;5003303;28;4054;-61
2023/06/04 04:57:30;;;;;;;;;;;;;;;21.46;40.46;101700.91;5001025;28;4595;-60
2023/06/04 04:59:58;;;;;;;;;;;;;;;21.47;40.68;101695.88;5005156;28;4169;-61
2023/06/04 05:02:24;;;;;;;;;;;;;;;21.47;40.76;101693.00;5002771;28;4066;-61
2023/06/04 05:04:52;;;;;;;;;;;;;;;21.47;40.69;101704.53;5008455;28;4194;-61
2023/06/04 05:07:21;;;;;;;;;;;;;;;21.46;40.82;101700.13;5005970;28;4129;-61
2023/06/04 05:09:47;;;;;;;;;;;;;;;21.46;40.60;101700.91;5004644;28;4090;-61
2023/06/04 05:12:14;;;;;;;;;;;;;;;21.48;40.74;101703.88;5010623;28;4170;-61
2023/06/04 05:14:41;;;;;;;;;;;;;;;21.47;40.88;101698.75;5002613;28;4005;-62
2023/06/04 05:17:10;;;;;;;;;;;;;;;21.47;40.85;101701.66;5001243;28;4173;-61
2023/06/04 05:19:38;;;;;;;;;;;;;;;21.46;41.09;101703.00;5012102;28;4539;-60
2023/06/04 05:22:05;;;;;;;;;;;;;;;21.47;40.89;101701.66;5011648;28;4041;-60
2023/06/04 05:24:32;;;;;;;;;;;;;;;21.47;41.24;101698.75;5004963;28;4523;-61
2023/06/04 05:27:03;;;;;;;;;;;;;;;21.47;41.19;101698.75;5002084;28;4108;-60
2023/06/04 05:29:30;;;;;;;;;;;;;;;21.48;41.07;101694.47;5011556;28;3948;-60
2023/06/04 05:31:56;;;;;;;;;;;;;;;21.48;41.46;101706.00;5004814;28;5091;-61
2023/06/04 05:34:23;;;;;;;;;;;;;;;21.47;41.34;101698.75;4998978;28;4155;-60
2023/06/04 05:36:50;;;;;;;;;;;;;;;21.48;41.60;101703.13;5013761;28;4128;-61
2023/06/04 05:39:18;;;;;;;;;;;;;;;21.48;41.39;101703.13;5010926;28;4124;-60
2023/06/04 05:41:51;;;;;;;;;;;;;;;21.48;41.63;101706.75;5013482;28;3993;-61
2023/06/04 05:44:18;;;;;;;;;;;;;;;21.48;41.37;101708.91;5013728;28;4002;-60
2023/06/04 05:46:45;;;;;;;;;;;;;;;21.48;41.44;101714.66;5010944;28;4262;-63
2023/06/04 05:49:13;;;;;;;;;;;;;;;21.48;41.45;101714.66;5002721;28;3973;-61
2023/06/04 05:51:39;;;;;;;;;;;;;;;21.47;41.66;101713.19;5002263;28;4064;-62
2023/06/04 05:54:06;;;;;;;;;;;;;;;21.47;41.54;101716.78;5007563;28;4213;-62
2023/06/04 05:56:35;;;;;;;;;;;;;;;21.48;41.64;101723.31;5009031;28;4329;-62
2023/06/04 05:59:02;;;;;;;;;;;;;;;21.48;41.70;101720.41;5006097;28;4155;-62
2023/06/04 06:01:29;;;;;;;;;;;;;;;21.47;41.84;101713.19;5008772;28;4915;-62
2023/06/04 06:03:56;;;;;;;;;;;;;;;21.47;41.89;101713.19;5009214;28;4219;-62
2023/06/04 06:06:25;;;;;;;;;;;;;;;21.47;41.91;101719.69;4997415;28;4242;-62
2023/06/04 06:08:52;;;;;;;;;;;;;;;21.48;41.87;101721.16;5002373;28;4150;-62
2023/06/04 06:11:18;;;;;;;;;;;;;;;21.48;41.92;101723.31;5010321;28;4207;-61
2023/06/04 06:13:45;;;;;;;;;;;;;;;21.47;41.76;101724.69;5005789;28;4062;-63
2023/06/04 06:16:12;;;;;;;;;;;;;;;21.48;41.98;101726.19;5003190;28;3966;-62
2023/06/04 06:18:39;;;;;;;;;;;;;;;21.47;41.79;101716.78;5005079;28;4017;-62
2023/06/04 06:21:05;;;;;;;;;;;;;;;21.47;41.83;101722.56;5008933;28;4294;-62
2023/06/04 06:23:32;;;;;;;;;;;;;;;21.48;41.89;101723.31;5005432;28;3890;-62
2023/06/04 06:26:01;;;;;;;;;;;;;;;21.49;42.06;101724.81;5012451;28;4381;-62
2023/06/04 06:28:31;;;;;;;;;;;;;;;21.48;42.04;101720.41;5006830;28;4128;-62
2023/06/04 06:30:58;;;;;;;;;;;;;;;21.48;42.05;101729.81;5006921;28;4237;-62
2023/06/04 06:33:24;;;;;;;;;;;;;;;21.48;41.96;101731.94;5006190;28;3915;-62
2023/06/04 06:35:51;;;;;;;;;;;;;;;21.49;41.96;101730.56;5008911;28;4110;-62
2023/06/04 06:38:17;;;;;;;;;;;;;;;21.47;42.17;101722.56;5003446;28;4212;-62
2023/06/04 06:40:44;;;;;;;;;;;;;;;21.49;42.19;101733.47;5003731;28;4144;-62
2023/06/04 06:43:10;;;;;;;;;;;;;;;21.48;41.95;101734.84;5008744;28;4430;-62
2023/06/04 06:45:37;;;;;;;;;;;;;;;21.49;42.20;101727.69;5005711;28;4484;-62
2023/06/04 06:48:03;;;;;;;;;;;;;;;21.48;42.04;101732.69;5004098;28;4497;-62
2023/06/04 06:50:30;;;;;;;;;;;;;;;21.49;42.24;101730.56;5007184;28;4041;-62
2023/06/04 06:52:56;;;;;;;;;;;;;;;21.48;42.31;101729.06;5007589;28;4511;-62
2023/06/04 06:55:23;;;;;;;;;;;;;;;21.49;42.10;101733.47;5006978;28;4027;-62
2023/06/04 06:57:49;;;;;;;;;;;;;;;21.49;41.90;101730.56;5008898;28;4335;-62
2023/06/04 07:00:16;;;;;;;;;;;;;;;21.49;41.99;101733.47;5008606;28;4379;-62
2023/06/04 07:02:43;;;;;;;;;;;;;;;21.49;42.04;101734.19;5007911;28;4445;-62
2023/06/04 07:05:10;;;;;;;;;;;;;;;21.49;42.13;101736.34;5007785;28;4021;-62
2023/06/04 07:07:36;;;;;;;;;;;;;;;21.49;42.34;101742.09;5004727;28;4238;-62
2023/06/04 07:10:03;;;;;;;;;;;;;;;21.49;42.10;101747.88;5005001;28;4204;-62
2023/06/04 07:12:30;;;;;;;;;;;;;;;21.50;42.29;101737.81;5006473;28;4110;-62
2023/06/04 07:14:56;;;;;;;;;;;;;;;21.49;42.33;101739.22;5006366;28;4144;-62
2023/06/04 07:17:22;;;;;;;;;;;;;;;21.50;42.23;101743.59;5007329;28;3976;-62
2023/06/04 07:19:49;;;;;;;;;;;;;;;21.49;42.07;101731.31;5007635;28;4080;-62
2023/06/04 07:22:15;;;;;;;;;;;;;;;21.50;42.09;101732.06;5003498;28;4020;-62
2023/06/04 07:24:42;;;;;;;;;;;;;;;21.50;42.13;101737.81;5013331;28;4192;-62
2023/06/04 07:27:14;;;;;;;;;;;;;;;21.50;42.09;101738.56;5007786;28;4137;-62
2023/06/04 07:29:42;;;;;;;;;;;;;;;21.50;42.26;101738.56;5008165;28;3952;-62
2023/06/04 07:32:08;;;;;;;;;;;;;;;21.49;42.18;101737.09;5004150;28;4485;-62
2023/06/04 07:34:36;;;;;;;;;;;;;;;21.50;42.11;101734.94;5010448;28;4619;-62
2023/06/04 07:37:03;;;;;;;;;;;;;;;21.50;42.33;101737.81;5004542;28;4017;-62
2023/06/04 07:39:29;;;;;;;;;;;;;;;21.50;42.13;101740.72;5012198;28;4167;-62
2023/06/04 07:41:56;;;;;;;;;;;;;;;21.50;42.29;101740.72;5006414;28;4147;-62
2023/06/04 07:44:22;;;;;;;;;;;;;;;21.50;42.28;101732.06;5007774;28;4050;-62
2023/06/04 07:46:49;;;;;;;;;;;;;;;21.50;42.41;101727.03;5009206;28;4297;-63
2023/06/04 07:49:15;;;;;;;;;;;;;;;21.51;42.40;101733.56;5005645;28;4209;-74
2023/06/04 07:51:42;;;;;;;;;;;;;;;21.50;42.07;101732.81;5005567;28;4149;-67
2023/06/04 07:54:08;;;;;;;;;;;;;;;21.50;42.17;101732.06;5009488;28;4317;-67
2023/06/04 07:56:35;;;;;;;;;;;;;;;21.50;42.25;101732.81;5002507;28;4159;-67
2023/06/04 07:59:01;;;;;;;;;;;;;;;21.50;42.42;101732.81;5001753;28;4136;-67
2023/06/04 08:01:28;;;;;;;;;;;;;;;21.50;42.40;101732.81;5015984;28;4098;-68
2023/06/04 08:03:54;;;;;;;;;;;;;;;21.51;42.36;101730.69;5004036;28;3929;-67
2023/06/04 08:06:21;;;;;;;;;;;;;;;21.51;42.50;101733.56;5007353;28;4038;-67
2023/06/04 08:08:49;;;;;;;;;;;;;;;21.50;42.24;101737.81;5006318;28;4364;-67
2023/06/04 08:11:16;;;;;;;;;;;;;;;21.50;42.23;101729.94;5005901;28;4309;-67
2023/06/04 08:13:42;;;;;;;;;;;;;;;21.51;42.37;101733.56;5004876;28;4053;-67
2023/06/04 08:16:10;;;;;;;;;;;;;;;21.51;42.29;101739.34;5000836;28;4034;-66
2023/06/04 08:18:39;;;;;;;;;;;;;;;21.47;39.73;101728.31;5005725;28;4153;-66
2023/06/04 08:21:08;;;;;;;;;;;;;;;21.42;39.26;101732.38;5003675;28;4352;-67
2023/06/04 08:23:35;;;;;;;;;;;;;;;21.22;36.21;101736.97;5000616;28;4126;-67
2023/06/04 08:26:01;;;;;;;;;;;;;;;21.19;35.07;101738.97;5007271;28;4294;-67
2023/06/04 08:28:28;;;;;;;;;;;;;;;21.24;33.93;101729.19;5005406;28;4360;-67
2023/06/04 08:30:54;;;;;;;;;;;;;;;21.20;33.10;101734.69;5003852;28;4199;-68
2023/06/04 08:33:21;;;;;;;;;;;;;;;21.17;32.69;101741.00;5006269;28;4204;-66
2023/06/04 08:35:47;;;;;;;;;;;;;;;21.18;32.01;101730.97;5004705;28;4067;-66
2023/06/04 08:38:14;;;;;;;;;;;;;;;21.19;32.80;101738.97;5002139;28;4202;-70
2023/06/04 08:40:40;;;;;;;;;;;;;;;20.91;32.38;101732.31;5002592;28;4219;-69
2023/06/04 08:43:07;;;;;;;;;;;;;;;20.90;30.99;101731.56;5001014;28;4169;-69
2023/06/04 08:45:33;;;;;;;;;;;;;;;20.84;31.94;101731.22;5009976;28;4714;-70
2023/06/04 08:48:00;;;;;;;;;;;;;;;20.69;31.19;101737.53;4998378;28;4175;-68
2023/06/04 08:50:26;;;;;;;;;;;;;;;20.96;31.57;101739.81;5004798;28;4239;-67
2023/06/04 08:52:54;;;;;;;;;;;;;;;21.12;31.99;101740.03;5008929;28;4148;-66
2023/06/04 08:55:20;;;;;;;;;;;;;;;21.22;32.16;101742.72;5009877;28;4078;-66
2023/06/04 08:57:47;;;;;;;;;;;;;;;21.27;33.10;101742.31;4999678;28;4018;-68
2023/06/04 09:00:14;;;;;;;;;;;;;;;21.32;32.96;101746.16;5000262;28;4201;-68
2023/06/04 09:02:40;;;;;;;;;;;;;;;21.23;33.44;101744.94;5003931;28;4105;-68
2023/06/04 09:05:08;;;;;;;;;;;;;;;21.17;32.93;101741.75;5005993;28;4206;-68
2023/06/04 09:07:35;;;;;;;;;;;;;;;21.16;32.39;101739.47;5005838;28;4132;-68
2023/06/04 09:10:02;;;;;;;;;;;;;;;21.06;32.08;101740.41;5006287;28;3936;-68
2023/06/04 09:12:40;;;;;;;;;;;;;;;21.10;31.65;101742.78;5009073;28;4032;-67
2023/06/04 09:15:07;;;;;;;;;;;;;;;21.11;31.03;101744.25;5005371;28;4755;-66
2023/06/04 09:17:33;;;;;;;;;;;;;;;21.15;30.86;101738.75;5001704;28;4202;-67
2023/06/04 09:20:00;;;;;;;;;;;;;;;21.17;30.26;101735.97;5008503;28;4139;-66
2023/06/04 09:22:33;;;;;;;;;;;;;;;21.20;30.48;101746.22;5001661;28;4127;-67
2023/06/04 09:24:59;;;;;;;;;;;;;;;21.22;29.93;101742.72;5000135;28;4191;-66
2023/06/04 09:27:27;;;;;;;;;;;;;;;21.16;30.46;101731.59;5002711;28;4022;-66
2023/06/04 09:29:57;;;;;;;;;;;;;;;21.26;31.35;101742.97;5001589;28;4064;-66
2023/06/04 09:32:23;;;;;;;;;;;;;;;21.30;30.64;101740.28;5003023;28;4099;-66
2023/06/04 09:34:50;;;;;;;;;;;;;;;21.32;31.19;101741.16;5002363;28;4010;-66
2023/06/04 09:37:17;;;;;;;;;;;;;;;21.32;32.06;101741.16;5002542;28;4014;-66
2023/06/04 09:39:44;;;;;;;;;;;;;;;21.33;32.60;101744.78;5009291;28;4537;-66
2023/06/04 09:42:11;;;;;;;;;;;;;;;21.33;32.72;101748.41;5005498;28;4077;-66
2023/06/04 09:44:44;;;;;;;;;;;;;;;21.33;33.50;101739.78;5000934;28;4215;-66
2023/06/04 09:47:11;;;;;;;;;;;;;;;21.30;33.38;101738.16;5002703;28;4139;-66
2023/06/04 09:49:44;;;;;;;;;;;;;;;21.38;33.24;101737.13;5004832;28;4172;-68
2023/06/04 09:52:10;;;;;;;;;;;;;;;21.40;33.58;101732.25;5005390;28;4004;-69
2023/06/04 09:54:37;;;;;;;;;;;;;;;21.39;33.67;101729.97;5010548;28;4132;-69
2023/06/04 09:57:13;;;;;;;;;;;;;;;21.39;34.75;101735.72;5006630;28;4172;-69
2023/06/04 09:59:40;;;;;;;;;;;;;;;21.43;34.42;101730.97;5003899;28;4192;-69
2023/06/04 10:02:06;;;;;;;;;;;;;;;21.38;34.93;101725.59;4999769;28;4198;-69
2023/06/04 10:04:33;;;;;;;;;;;;;;;21.43;35.24;101722.31;5001354;28;4064;-68
2023/06/04 10:06:59;;;;;;;;;;;;;;;21.46;35.23;101723.19;5001088;28;4335;-69
2023/06/04 10:09:26;;;;;;;;;;;;;;;21.45;35.50;101718.81;5011949;28;4024;-69
2023/06/04 10:11:53;;;;;;;;;;;;;;;21.49;35.43;101721.94;5003337;28;4064;-69
2023/06/04 10:14:23;;;;;;;;;;;;;;;21.48;35.54;101724.03;4995793;28;4187;-69
2023/06/04 10:16:51;;;;;;;;;;;;;;;21.48;35.56;101724.03;4999328;28;4030;-69
2023/06/04 10:19:18;;;;;;;;;;;;;;;21.48;35.81;101723.31;5001792;28;4859;-69
2023/06/04 10:21:44;;;;;;;;;;;;;;;21.51;35.67;101727.81;5002589;28;4593;-69
2023/06/04 10:24:11;;;;;;;;;;;;;;;21.50;35.77;101720.53;5010255;28;4203;-68
2023/06/04 10:26:38;;;;;;;;;;;;;;;21.53;35.80;101719.25;5012734;28;4046;-69
2023/06/04 10:29:04;;;;;;;;;;;;;;;21.49;36.10;101719.78;5010569;28;4009;-69
2023/06/04 10:31:31;;;;;;;;;;;;;;;21.52;36.31;101718.50;5007678;28;4026;-69
2023/06/04 10:33:58;;;;;;;;;;;;;;;21.55;36.52;101710.72;5004713;28;4054;-69
2023/06/04 10:36:24;;;;;;;;;;;;;;;21.56;36.38;101718.00;5016571;28;4154;-69
2023/06/04 10:38:53;;;;;;;;;;;;;;;21.57;36.83;101719.47;5006327;28;4124;-70
2023/06/04 10:41:22;;;;;;;;;;;;;;;21.57;36.99;101713.72;5003477;28;4115;-70
2023/06/04 10:43:49;;;;;;;;;;;;;;;21.58;37.15;101721.00;5004170;28;4286;-68
2023/06/04 10:46:16;;;;;;;;;;;;;;;21.61;37.04;101713.94;5005093;28;4159;-70
2023/06/04 10:48:49;;;;;;;;;;;;;;;21.62;37.11;101715.44;5008726;28;4270;-70
2023/06/04 10:51:16;;;;;;;;;;;;;;;21.64;37.26;101715.53;5006575;28;4068;-70
2023/06/04 10:53:42;;;;;;;;;;;;;;;21.62;37.48;101721.19;5004677;28;4062;-69
2023/06/04 10:56:09;;;;;;;;;;;;;;;21.63;37.73;101716.19;5003360;28;4119;-70
2023/06/04 10:58:35;;;;;;;;;;;;;;;21.65;37.56;101713.44;5004343;28;4181;-70
2023/06/04 11:01:02;;;;;;;;;;;;;;;21.65;37.66;101717.06;5009702;28;3953;-70
2023/06/04 11:03:34;;;;;;;;;;;;;;;21.69;38.07;101714.41;5012021;28;4180;-69
2023/06/04 11:06:01;;;;;;;;;;;;;;;21.67;37.97;101714.28;5004024;28;4047;-70
2023/06/04 11:08:28;;;;;;;;;;;;;;;21.64;38.37;101711.91;5008411;28;4155;-70
2023/06/04 11:10:55;;;;;;;;;;;;;;;21.65;38.59;101716.31;5008315;28;4232;-69
2023/06/04 11:13:25;;;;;;;;;;;;;;;21.64;38.37;101709.78;5003021;28;4176;-70
2023/06/04 11:15:52;;;;;;;;;;;;;;;21.63;38.34;101705.41;5003441;28;4234;-69
2023/06/04 11:18:19;;;;;;;;;;;;;;;21.65;38.86;101707.66;5005448;28;4123;-69
2023/06/04 11:20:58;;;;;;;;;;;;;;;21.65;38.82;101707.66;5008301;28;4151;-69
2023/06/04 11:23:25;;;;;;;;;;;;;;;21.65;39.06;101702.66;5005607;28;4089;-69
2023/06/04 11:25:54;;;;;;;;;;;;;;;21.67;39.06;101702.75;5003935;28;4141;-69
2023/06/04 11:28:24;;;;;;;;;;;;;;;21.72;39.37;101701.59;5005504;28;4264;-70
2023/06/04 11:30:57;;;;;;;;;;;;;;;21.73;39.64;101697.31;5006198;28;4098;-69
2023/06/04 11:33:24;;;;;;;;;;;;;;;21.73;39.45;101702.31;5003313;28;4137;-69
2023/06/04 11:35:50;;;;;;;;;;;;;;;21.72;39.63;101698.72;5015078;28;4039;-69
2023/06/04 11:38:17;;;;;;;;;;;;;;;21.73;39.82;101703.06;5008869;28;4269;-69
2023/06/04 11:40:45;;;;;;;;;;;;;;;21.73;39.91;101703.06;5006985;28;4248;-70
2023/06/04 11:43:11;;;;;;;;;;;;;;;21.73;40.03;101705.94;5009104;28;4203;-70
2023/06/04 11:45:37;;;;;;;;;;;;;;;21.76;40.04;101706.81;5011547;28;4036;-70
2023/06/04 11:48:04;;;;;;;;;;;;;;;21.72;40.24;101704.47;5006201;28;4171;-70
2023/06/04 11:50:31;;;;;;;;;;;;;;;21.73;40.73;101702.31;5006492;28;4081;-70
2023/06/04 11:52:57;;;;;;;;;;;;;;;21.74;40.73;101704.59;5014555;28;4103;-69
2023/06/04 11:55:24;;;;;;;;;;;;;;;21.75;40.83;101691.66;5003519;28;4175;-69
2023/06/04 11:57:51;;;;;;;;;;;;;;;21.77;40.89;101693.16;5009344;28;4046;-69
2023/06/04 12:00:17;;;;;;;;;;;;;;;21.78;40.88;101691.75;5008867;28;4010;-69
2023/06/04 12:02:53;;;;;;;;;;;;;;;21.78;41.14;101692.50;5011805;28;3971;-69
2023/06/04 12:05:31;;;;;;;;;;;;;;;21.77;41.58;101687.41;5010104;28;3989;-69
2023/06/04 12:08:09;;;;;;;;;;;;;;;21.81;41.27;101687.63;5004919;28;3968;-69
2023/06/04 12:10:39;;;;;;;;;;;;;;;21.81;41.42;101690.50;5009066;28;4118;-69
2023/06/04 12:13:05;;;;;;;;;;;;;;;21.81;41.86;101687.63;5000542;28;4115;-69
2023/06/04 12:15:31;;;;;;;;;;;;;;;21.79;41.76;101681.75;5008590;28;4361;-69
2023/06/04 12:17:58;;;;;;;;;;;;;;;21.81;42.09;101685.47;5010121;28;4087;-69
2023/06/04 12:20:34;;;;;;;;;;;;;;;21.83;41.76;101681.94;5011428;28;4179;-69
2023/06/04 12:23:01;;;;;;;;;;;;;;;21.87;41.73;101682.16;5001406;28;4199;-69
2023/06/04 12:25:27;;;;;;;;;;;;;;;21.83;42.17;101676.16;5008881;28;4107;-70
2023/06/04 12:27:54;;;;;;;;;;;;;;;21.89;41.94;101679.38;5003383;28;4138;-70
2023/06/04 12:30:20;;;;;;;;;;;;;;;21.85;42.09;101664.75;5005624;28;4098;-69
2023/06/04 12:32:47;;;;;;;;;;;;;;;21.85;42.08;101665.53;5009787;28;4035;-69
2023/06/04 12:35:15;;;;;;;;;;;;;;;21.90;41.91;101680.91;5004592;28;4150;-69
2023/06/04 12:37:42;;;;;;;;;;;;;;;21.92;41.87;101678.88;5007780;28;4237;-69
2023/06/04 12:40:08;;;;;;;;;;;;;;;21.90;41.61;101664.34;5009246;28;4049;-69
2023/06/04 12:42:35;;;;;;;;;;;;;;;21.93;41.58;101676.72;5009829;28;3997;-70
2023/06/04 12:45:01;;;;;;;;;;;;;;;21.93;41.73;101674.59;5007433;28;4095;-69
2023/06/04 12:47:28;;;;;;;;;;;;;;;21.95;41.63;101671.06;5005628;28;4181;-69